sensor_id;sensor_type;location;lat;lon;timestamp;P1;durP1;ratioP1;P2;durP2;ratioP2
3046;SDS011;1533;44.816;20.420;2022-08-19T00:00:05;10.33;;;9.33;;
3046;SDS011;1533;44.816;20.420;2022-08-19T00:02:36;10.37;;;9.17;;
3046;SDS011;1533;44.816;20.420;2022-08-19T00:05:02;9.83;;;8.83;;
3046;SDS011;1533;44.816;20.420;2022-08-19T00:07:28;10.70;;;8.67;;
3046;SDS011;1533;44.816;20.420;2022-08-19T00:09:54;9.83;;;8.83;;
3046;SDS011;1533;44.816;20.420;2022-08-19T00:12:21;10.50;;;8.23;;
3046;SDS011;1533;44.816;20.420;2022-08-19T00:14:46;9.30;;;8.40;;
3046;SDS011;1533;44.816;20.420;2022-08-19T00:17:12;9.43;;;8.47;;
3046;SDS011;1533;44.816;20.420;2022-08-19T00:19:43;11.17;;;8.40;;
3046;SDS011;1533;44.816;20.420;2022-08-19T00:22:09;9.97;;;8.97;;
3046;SDS011;1533;44.816;20.420;2022-08-19T00:24:34;9.80;;;8.30;;
3046;SDS011;1533;44.816;20.420;2022-08-19T00:27:04;9.80;;;8.80;;
3046;SDS011;1533;44.816;20.420;2022-08-19T00:29:30;11.00;;;8.90;;
3046;SDS011;1533;44.816;20.420;2022-08-19T00:31:57;10.80;;;8.47;;
3046;SDS011;1533;44.816;20.420;2022-08-19T00:34:25;8.67;;;7.83;;
3046;SDS011;1533;44.816;20.420;2022-08-19T00:36:54;12.27;;;7.67;;
3046;SDS011;1533;44.816;20.420;2022-08-19T00:39:21;8.20;;;7.40;;
3046;SDS011;1533;44.816;20.420;2022-08-19T00:41:48;9.93;;;7.80;;
3046;SDS011;1533;44.816;20.420;2022-08-19T00:44:20;14.67;;;7.07;;
3046;SDS011;1533;44.816;20.420;2022-08-19T00:46:51;8.50;;;7.47;;
3046;SDS011;1533;44.816;20.420;2022-08-19T00:52:08;9.00;;;7.67;;
3046;SDS011;1533;44.816;20.420;2022-08-19T00:54:37;12.30;;;8.43;;
3046;SDS011;1533;44.816;20.420;2022-08-19T00:57:04;9.47;;;8.50;;
3046;SDS011;1533;44.816;20.420;2022-08-19T00:59:32;10.97;;;9.10;;
3046;SDS011;1533;44.816;20.420;2022-08-19T01:02:03;10.30;;;8.90;;
3046;SDS011;1533;44.816;20.420;2022-08-19T01:04:28;9.60;;;8.43;;
3046;SDS011;1533;44.816;20.420;2022-08-19T01:06:55;9.80;;;8.87;;
3046;SDS011;1533;44.816;20.420;2022-08-19T01:09:21;10.53;;;9.43;;
3046;SDS011;1533;44.816;20.420;2022-08-19T01:11:50;12.47;;;10.20;;
3046;SDS011;1533;44.816;20.420;2022-08-19T01:14:16;12.03;;;9.50;;
3046;SDS011;1533;44.816;20.420;2022-08-19T01:16:42;13.80;;;10.83;;
3046;SDS011;1533;44.816;20.420;2022-08-19T01:19:26;12.07;;;9.83;;
3046;SDS011;1533;44.816;20.420;2022-08-19T01:22:06;21.23;;;11.77;;
3046;SDS011;1533;44.816;20.420;2022-08-19T01:24:35;14.70;;;10.93;;
3046;SDS011;1533;44.816;20.420;2022-08-19T01:27:03;11.80;;;10.60;;
3046;SDS011;1533;44.816;20.420;2022-08-19T01:29:32;14.17;;;12.20;;
3046;SDS011;1533;44.816;20.420;2022-08-19T01:32:00;14.00;;;12.63;;
3046;SDS011;1533;44.816;20.420;2022-08-19T01:34:26;13.43;;;12.00;;
3046;SDS011;1533;44.816;20.420;2022-08-19T01:36:52;13.93;;;12.63;;
3046;SDS011;1533;44.816;20.420;2022-08-19T01:39:20;14.63;;;13.30;;
3046;SDS011;1533;44.816;20.420;2022-08-19T01:41:48;15.27;;;12.67;;
3046;SDS011;1533;44.816;20.420;2022-08-19T01:44:15;16.93;;;12.13;;
3046;SDS011;1533;44.816;20.420;2022-08-19T01:46:42;12.93;;;11.63;;
3046;SDS011;1533;44.816;20.420;2022-08-19T01:49:08;14.17;;;11.80;;
3046;SDS011;1533;44.816;20.420;2022-08-19T01:51:34;15.93;;;13.37;;
3046;SDS011;1533;44.816;20.420;2022-08-19T01:54:00;14.80;;;13.40;;
3046;SDS011;1533;44.816;20.420;2022-08-19T01:56:26;15.40;;;13.90;;
3046;SDS011;1533;44.816;20.420;2022-08-19T01:58:58;14.47;;;12.90;;
3046;SDS011;1533;44.816;20.420;2022-08-19T02:01:27;14.13;;;12.80;;
3046;SDS011;1533;44.816;20.420;2022-08-19T02:03:56;15.87;;;13.97;;
3046;SDS011;1533;44.816;20.420;2022-08-19T02:06:22;20.07;;;13.10;;
3046;SDS011;1533;44.816;20.420;2022-08-19T02:08:47;15.57;;;13.90;;
3046;SDS011;1533;44.816;20.420;2022-08-19T02:11:21;14.93;;;13.53;;
3046;SDS011;1533;44.816;20.420;2022-08-19T02:13:52;14.40;;;12.87;;
3046;SDS011;1533;44.816;20.420;2022-08-19T02:16:19;15.47;;;13.87;;
3046;SDS011;1533;44.816;20.420;2022-08-19T02:18:46;16.10;;;13.60;;
3046;SDS011;1533;44.816;20.420;2022-08-19T02:21:14;15.80;;;14.23;;
3046;SDS011;1533;44.816;20.420;2022-08-19T02:23:41;15.60;;;13.90;;
3046;SDS011;1533;44.816;20.420;2022-08-19T02:26:07;13.43;;;12.30;;
3046;SDS011;1533;44.816;20.420;2022-08-19T02:28:33;15.30;;;13.60;;
3046;SDS011;1533;44.816;20.420;2022-08-19T02:30:59;16.00;;;13.17;;
3046;SDS011;1533;44.816;20.420;2022-08-19T02:33:25;16.30;;;13.20;;
3046;SDS011;1533;44.816;20.420;2022-08-19T02:35:51;15.97;;;14.37;;
3046;SDS011;1533;44.816;20.420;2022-08-19T02:38:17;16.63;;;14.97;;
3046;SDS011;1533;44.816;20.420;2022-08-19T02:40:55;14.77;;;13.40;;
3046;SDS011;1533;44.816;20.420;2022-08-19T02:43:22;15.83;;;13.83;;
3046;SDS011;1533;44.816;20.420;2022-08-19T02:45:48;14.93;;;13.43;;
3046;SDS011;1533;44.816;20.420;2022-08-19T02:48:16;16.23;;;13.47;;
3046;SDS011;1533;44.816;20.420;2022-08-19T02:50:44;15.53;;;13.67;;
3046;SDS011;1533;44.816;20.420;2022-08-19T02:53:10;15.33;;;13.77;;
3046;SDS011;1533;44.816;20.420;2022-08-19T02:55:41;15.43;;;13.93;;
3046;SDS011;1533;44.816;20.420;2022-08-19T02:58:08;19.63;;;13.33;;
3046;SDS011;1533;44.816;20.420;2022-08-19T03:00:34;16.23;;;13.73;;
3046;SDS011;1533;44.816;20.420;2022-08-19T03:02:59;15.40;;;13.90;;
3046;SDS011;1533;44.816;20.420;2022-08-19T03:05:25;14.03;;;12.67;;
3046;SDS011;1533;44.816;20.420;2022-08-19T03:07:52;16.10;;;14.50;;
3046;SDS011;1533;44.816;20.420;2022-08-19T03:10:18;15.73;;;13.93;;
3046;SDS011;1533;44.816;20.420;2022-08-19T03:12:43;16.40;;;14.70;;
3046;SDS011;1533;44.816;20.420;2022-08-19T03:15:11;17.50;;;15.50;;
3046;SDS011;1533;44.816;20.420;2022-08-19T03:17:36;16.00;;;14.23;;
3046;SDS011;1533;44.816;20.420;2022-08-19T03:20:02;16.20;;;14.60;;
3046;SDS011;1533;44.816;20.420;2022-08-19T03:22:29;17.17;;;15.43;;
3046;SDS011;1533;44.816;20.420;2022-08-19T03:24:55;17.13;;;15.47;;
3046;SDS011;1533;44.816;20.420;2022-08-19T03:27:20;16.30;;;14.50;;
3046;SDS011;1533;44.816;20.420;2022-08-19T03:29:46;17.63;;;15.83;;
3046;SDS011;1533;44.816;20.420;2022-08-19T03:32:12;17.87;;;15.97;;
3046;SDS011;1533;44.816;20.420;2022-08-19T03:34:37;16.57;;;14.97;;
3046;SDS011;1533;44.816;20.420;2022-08-19T03:37:05;17.17;;;15.67;;
3046;SDS011;1533;44.816;20.420;2022-08-19T03:39:35;16.77;;;14.87;;
3046;SDS011;1533;44.816;20.420;2022-08-19T03:42:02;16.90;;;15.27;;
3046;SDS011;1533;44.816;20.420;2022-08-19T03:44:28;17.30;;;15.80;;
3046;SDS011;1533;44.816;20.420;2022-08-19T03:46:58;22.00;;;16.57;;
3046;SDS011;1533;44.816;20.420;2022-08-19T03:49:25;18.47;;;16.57;;
3046;SDS011;1533;44.816;20.420;2022-08-19T03:51:55;15.63;;;14.13;;
3046;SDS011;1533;44.816;20.420;2022-08-19T03:54:22;16.73;;;15.10;;
3046;SDS011;1533;44.816;20.420;2022-08-19T03:56:49;16.50;;;14.80;;
3046;SDS011;1533;44.816;20.420;2022-08-19T03:59:26;17.03;;;15.43;;
3046;SDS011;1533;44.816;20.420;2022-08-19T04:01:57;17.03;;;15.33;;
3046;SDS011;1533;44.816;20.420;2022-08-19T04:04:25;18.77;;;15.50;;
3046;SDS011;1533;44.816;20.420;2022-08-19T04:06:51;16.33;;;14.53;;
3046;SDS011;1533;44.816;20.420;2022-08-19T04:09:17;17.93;;;16.13;;
3046;SDS011;1533;44.816;20.420;2022-08-19T04:11:45;16.83;;;15.13;;
3046;SDS011;1533;44.816;20.420;2022-08-19T04:14:19;20.03;;;18.13;;
3046;SDS011;1533;44.816;20.420;2022-08-19T04:16:47;18.60;;;14.83;;
3046;SDS011;1533;44.816;20.420;2022-08-19T04:19:16;20.23;;;16.17;;
3046;SDS011;1533;44.816;20.420;2022-08-19T04:21:44;18.03;;;16.23;;
3046;SDS011;1533;44.816;20.420;2022-08-19T04:24:11;17.00;;;15.40;;
3046;SDS011;1533;44.816;20.420;2022-08-19T04:26:37;16.80;;;14.77;;
3046;SDS011;1533;44.816;20.420;2022-08-19T04:29:09;17.33;;;15.73;;
3046;SDS011;1533;44.816;20.420;2022-08-19T04:31:38;17.80;;;15.00;;
3046;SDS011;1533;44.816;20.420;2022-08-19T04:34:05;16.60;;;14.73;;
3046;SDS011;1533;44.816;20.420;2022-08-19T04:36:33;20.33;;;16.90;;
3046;SDS011;1533;44.816;20.420;2022-08-19T04:39:03;18.03;;;15.57;;
3046;SDS011;1533;44.816;20.420;2022-08-19T04:41:30;20.40;;;15.97;;
3046;SDS011;1533;44.816;20.420;2022-08-19T04:44:14;16.77;;;15.00;;
3046;SDS011;1533;44.816;20.420;2022-08-19T04:46:43;17.20;;;15.07;;
3046;SDS011;1533;44.816;20.420;2022-08-19T04:49:13;16.03;;;14.43;;
3046;SDS011;1533;44.816;20.420;2022-08-19T04:51:41;20.87;;;16.10;;
3046;SDS011;1533;44.816;20.420;2022-08-19T04:54:07;24.93;;;16.00;;
3046;SDS011;1533;44.816;20.420;2022-08-19T04:56:32;16.03;;;14.53;;
3046;SDS011;1533;44.816;20.420;2022-08-19T04:58:58;17.63;;;15.03;;
3046;SDS011;1533;44.816;20.420;2022-08-19T05:01:28;20.67;;;13.57;;
3046;SDS011;1533;44.816;20.420;2022-08-19T05:03:54;18.60;;;15.53;;
3046;SDS011;1533;44.816;20.420;2022-08-19T05:06:22;18.30;;;14.50;;
3046;SDS011;1533;44.816;20.420;2022-08-19T05:08:50;16.43;;;14.67;;
3046;SDS011;1533;44.816;20.420;2022-08-19T05:11:17;15.27;;;13.70;;
3046;SDS011;1533;44.816;20.420;2022-08-19T05:13:51;15.00;;;13.50;;
3046;SDS011;1533;44.816;20.420;2022-08-19T05:16:18;18.53;;;14.17;;
3046;SDS011;1533;44.816;20.420;2022-08-19T05:18:45;20.50;;;15.00;;
3046;SDS011;1533;44.816;20.420;2022-08-19T05:21:30;19.07;;;14.40;;
3046;SDS011;1533;44.816;20.420;2022-08-19T05:24:16;18.70;;;13.00;;
3046;SDS011;1533;44.816;20.420;2022-08-19T05:26:44;19.03;;;13.53;;
3046;SDS011;1533;44.816;20.420;2022-08-19T05:29:12;21.03;;;13.90;;
3046;SDS011;1533;44.816;20.420;2022-08-19T05:31:39;17.53;;;13.20;;
3046;SDS011;1533;44.816;20.420;2022-08-19T05:34:08;23.73;;;13.70;;
3046;SDS011;1533;44.816;20.420;2022-08-19T05:36:39;20.40;;;13.40;;
3046;SDS011;1533;44.816;20.420;2022-08-19T05:39:07;26.40;;;14.17;;
3046;SDS011;1533;44.816;20.420;2022-08-19T05:41:33;19.40;;;13.50;;
3046;SDS011;1533;44.816;20.420;2022-08-19T05:44:01;18.27;;;12.57;;
3046;SDS011;1533;44.816;20.420;2022-08-19T05:46:27;29.07;;;13.30;;
3046;SDS011;1533;44.816;20.420;2022-08-19T05:48:53;18.97;;;13.50;;
3046;SDS011;1533;44.816;20.420;2022-08-19T05:51:21;16.73;;;13.40;;
3046;SDS011;1533;44.816;20.420;2022-08-19T05:53:48;20.80;;;12.07;;
3046;SDS011;1533;44.816;20.420;2022-08-19T05:56:15;19.20;;;12.80;;
3046;SDS011;1533;44.816;20.420;2022-08-19T06:01:26;17.80;;;11.70;;
3046;SDS011;1533;44.816;20.420;2022-08-19T06:03:57;17.63;;;11.73;;
3046;SDS011;1533;44.816;20.420;2022-08-19T06:06:25;11.93;;;10.63;;
3046;SDS011;1533;44.816;20.420;2022-08-19T06:08:51;12.10;;;10.60;;
3046;SDS011;1533;44.816;20.420;2022-08-19T06:11:50;13.67;;;9.87;;
3046;SDS011;1533;44.816;20.420;2022-08-19T06:14:12;14.77;;;10.37;;
3046;SDS011;1533;44.816;20.420;2022-08-19T06:16:46;13.67;;;10.57;;
3046;SDS011;1533;44.816;20.420;2022-08-19T06:19:32;14.60;;;10.13;;
3046;SDS011;1533;44.816;20.420;2022-08-19T06:21:58;12.77;;;10.23;;
3046;SDS011;1533;44.816;20.420;2022-08-19T06:24:32;12.40;;;9.13;;
3046;SDS011;1533;44.816;20.420;2022-08-19T06:27:00;10.40;;;9.40;;
3046;SDS011;1533;44.816;20.420;2022-08-19T06:29:32;14.07;;;9.13;;
3046;SDS011;1533;44.816;20.420;2022-08-19T06:32:00;23.13;;;10.23;;
3046;SDS011;1533;44.816;20.420;2022-08-19T06:34:36;29.03;;;10.40;;
3046;SDS011;1533;44.816;20.420;2022-08-19T06:37:07;12.27;;;9.60;;
3046;SDS011;1533;44.816;20.420;2022-08-19T06:39:47;12.93;;;8.40;;
3046;SDS011;1533;44.816;20.420;2022-08-19T06:42:27;16.57;;;8.83;;
3046;SDS011;1533;44.816;20.420;2022-08-19T06:45:19;15.97;;;8.93;;
3046;SDS011;1533;44.816;20.420;2022-08-19T06:47:50;12.30;;;8.83;;
3046;SDS011;1533;44.816;20.420;2022-08-19T06:50:20;21.60;;;8.50;;
3046;SDS011;1533;44.816;20.420;2022-08-19T06:52:48;10.70;;;8.07;;
3046;SDS011;1533;44.816;20.420;2022-08-19T06:55:16;11.00;;;9.10;;
3046;SDS011;1533;44.816;20.420;2022-08-19T06:57:47;12.43;;;8.03;;
3046;SDS011;1533;44.816;20.420;2022-08-19T07:00:30;11.43;;;8.63;;
3046;SDS011;1533;44.816;20.420;2022-08-19T07:03:01;9.97;;;8.97;;
3046;SDS011;1533;44.816;20.420;2022-08-19T07:05:35;13.10;;;9.00;;
3046;SDS011;1533;44.816;20.420;2022-08-19T07:08:10;10.93;;;8.33;;
3046;SDS011;1533;44.816;20.420;2022-08-19T07:10:36;12.40;;;8.00;;
3046;SDS011;1533;44.816;20.420;2022-08-19T07:13:03;8.67;;;7.80;;
3046;SDS011;1533;44.816;20.420;2022-08-19T07:15:29;9.87;;;8.83;;
3046;SDS011;1533;44.816;20.420;2022-08-19T07:17:58;10.77;;;8.13;;
3046;SDS011;1533;44.816;20.420;2022-08-19T07:20:24;11.23;;;8.13;;
3046;SDS011;1533;44.816;20.420;2022-08-19T07:22:53;20.43;;;9.03;;
3046;SDS011;1533;44.816;20.420;2022-08-19T07:25:21;10.60;;;8.70;;
3046;SDS011;1533;44.816;20.420;2022-08-19T07:27:48;11.30;;;9.10;;
3046;SDS011;1533;44.816;20.420;2022-08-19T07:30:16;16.97;;;8.50;;
3046;SDS011;1533;44.816;20.420;2022-08-19T07:32:42;10.23;;;8.50;;
3046;SDS011;1533;44.816;20.420;2022-08-19T07:35:08;14.73;;;10.10;;
3046;SDS011;1533;44.816;20.420;2022-08-19T07:37:36;13.23;;;8.17;;
3046;SDS011;1533;44.816;20.420;2022-08-19T07:40:04;12.40;;;9.00;;
3046;SDS011;1533;44.816;20.420;2022-08-19T07:42:31;12.70;;;9.60;;
3046;SDS011;1533;44.816;20.420;2022-08-19T07:44:59;18.10;;;9.00;;
3046;SDS011;1533;44.816;20.420;2022-08-19T07:47:44;9.97;;;8.93;;
3046;SDS011;1533;44.816;20.420;2022-08-19T07:50:16;12.00;;;9.60;;
3046;SDS011;1533;44.816;20.420;2022-08-19T07:52:43;12.20;;;8.70;;
3046;SDS011;1533;44.816;20.420;2022-08-19T07:55:09;12.07;;;8.70;;
3046;SDS011;1533;44.816;20.420;2022-08-19T07:57:35;11.50;;;9.67;;
3046;SDS011;1533;44.816;20.420;2022-08-19T08:00:04;15.33;;;9.07;;
3046;SDS011;1533;44.816;20.420;2022-08-19T08:02:40;11.00;;;8.50;;
3046;SDS011;1533;44.816;20.420;2022-08-19T08:05:29;11.20;;;9.10;;
3046;SDS011;1533;44.816;20.420;2022-08-19T08:08:13;9.43;;;8.47;;
3046;SDS011;1533;44.816;20.420;2022-08-19T08:10:58;12.60;;;8.40;;
3046;SDS011;1533;44.816;20.420;2022-08-19T08:13:24;13.10;;;10.13;;
3046;SDS011;1533;44.816;20.420;2022-08-19T08:15:51;11.57;;;9.33;;
3046;SDS011;1533;44.816;20.420;2022-08-19T08:18:17;13.53;;;8.50;;
3046;SDS011;1533;44.816;20.420;2022-08-19T08:20:46;13.90;;;9.27;;
3046;SDS011;1533;44.816;20.420;2022-08-19T08:23:12;14.80;;;9.07;;
3046;SDS011;1533;44.816;20.420;2022-08-19T08:25:51;10.10;;;8.23;;
3046;SDS011;1533;44.816;20.420;2022-08-19T08:28:21;10.10;;;9.10;;
3046;SDS011;1533;44.816;20.420;2022-08-19T08:30:50;10.50;;;8.27;;
3046;SDS011;1533;44.816;20.420;2022-08-19T08:33:17;17.23;;;8.83;;
3046;SDS011;1533;44.816;20.420;2022-08-19T08:35:47;11.07;;;8.07;;
3046;SDS011;1533;44.816;20.420;2022-08-19T08:38:13;14.20;;;7.87;;
3046;SDS011;1533;44.816;20.420;2022-08-19T08:40:46;12.57;;;8.53;;
3046;SDS011;1533;44.816;20.420;2022-08-19T08:43:32;15.93;;;8.90;;
3046;SDS011;1533;44.816;20.420;2022-08-19T08:46:00;11.47;;;9.17;;
3046;SDS011;1533;44.816;20.420;2022-08-19T08:51:15;12.73;;;8.00;;
3046;SDS011;1533;44.816;20.420;2022-08-19T08:53:48;8.37;;;7.57;;
3046;SDS011;1533;44.816;20.420;2022-08-19T08:56:15;9.33;;;8.37;;
3046;SDS011;1533;44.816;20.420;2022-08-19T09:01:33;10.83;;;8.33;;
3046;SDS011;1533;44.816;20.420;2022-08-19T09:03:58;8.60;;;7.77;;
3046;SDS011;1533;44.816;20.420;2022-08-19T09:14:54;11.80;;;8.50;;
3046;SDS011;1533;44.816;20.420;2022-08-19T09:17:50;14.47;;;8.07;;
3046;SDS011;1533;44.816;20.420;2022-08-19T09:20:18;9.70;;;8.07;;
3046;SDS011;1533;44.816;20.420;2022-08-19T09:26:15;8.40;;;7.50;;
3046;SDS011;1533;44.816;20.420;2022-08-19T09:28:43;8.83;;;6.90;;
3046;SDS011;1533;44.816;20.420;2022-08-19T09:31:10;17.97;;;8.60;;
3046;SDS011;1533;44.816;20.420;2022-08-19T09:33:39;8.00;;;7.10;;
3046;SDS011;1533;44.816;20.420;2022-08-19T09:36:12;9.50;;;7.17;;
3046;SDS011;1533;44.816;20.420;2022-08-19T09:39:04;9.60;;;6.77;;
3046;SDS011;1533;44.816;20.420;2022-08-19T09:41:33;8.40;;;7.30;;
3046;SDS011;1533;44.816;20.420;2022-08-19T09:44:02;14.20;;;8.27;;
3046;SDS011;1533;44.816;20.420;2022-08-19T09:46:28;9.97;;;6.80;;
3046;SDS011;1533;44.816;20.420;2022-08-19T09:49:04;11.77;;;7.20;;
3046;SDS011;1533;44.816;20.420;2022-08-19T09:51:31;9.67;;;7.40;;
3046;SDS011;1533;44.816;20.420;2022-08-19T09:54:12;11.13;;;7.20;;
3046;SDS011;1533;44.816;20.420;2022-08-19T09:57:08;9.00;;;7.50;;
3046;SDS011;1533;44.816;20.420;2022-08-19T09:59:36;12.63;;;6.93;;
3046;SDS011;1533;44.816;20.420;2022-08-19T10:02:07;8.70;;;6.70;;
3046;SDS011;1533;44.816;20.420;2022-08-19T10:04:34;36.37;;;12.77;;
3046;SDS011;1533;44.816;20.420;2022-08-19T10:07:18;12.10;;;7.30;;
3046;SDS011;1533;44.816;20.420;2022-08-19T10:09:59;10.10;;;6.73;;
3046;SDS011;1533;44.816;20.420;2022-08-19T10:12:42;8.63;;;7.07;;
3046;SDS011;1533;44.816;20.420;2022-08-19T10:15:26;7.63;;;6.70;;
3046;SDS011;1533;44.816;20.420;2022-08-19T10:18:05;8.07;;;7.27;;
3046;SDS011;1533;44.816;20.420;2022-08-19T10:20:33;10.37;;;7.20;;
3046;SDS011;1533;44.816;20.420;2022-08-19T10:23:02;9.20;;;7.07;;
3046;SDS011;1533;44.816;20.420;2022-08-19T10:25:43;11.80;;;7.00;;
3046;SDS011;1533;44.816;20.420;2022-08-19T10:28:58;8.27;;;7.47;;
3046;SDS011;1533;44.816;20.420;2022-08-19T10:31:10;8.33;;;7.23;;
3046;SDS011;1533;44.816;20.420;2022-08-19T10:33:51;11.80;;;6.17;;
3046;SDS011;1533;44.816;20.420;2022-08-19T10:36:37;20.83;;;9.70;;
3046;SDS011;1533;44.816;20.420;2022-08-19T10:39:09;11.20;;;6.87;;
3046;SDS011;1533;44.816;20.420;2022-08-19T10:41:40;7.40;;;6.63;;
3046;SDS011;1533;44.816;20.420;2022-08-19T10:44:26;9.07;;;6.60;;
3046;SDS011;1533;44.816;20.420;2022-08-19T10:46:53;7.73;;;6.83;;
3046;SDS011;1533;44.816;20.420;2022-08-19T10:49:40;7.30;;;6.60;;
3046;SDS011;1533;44.816;20.420;2022-08-19T10:59:47;10.17;;;7.40;;
3046;SDS011;1533;44.816;20.420;2022-08-19T11:02:24;8.07;;;6.70;;
3046;SDS011;1533;44.816;20.420;2022-08-19T11:04:51;8.93;;;6.67;;
3046;SDS011;1533;44.816;20.420;2022-08-19T11:07:16;8.63;;;7.17;;
3046;SDS011;1533;44.816;20.420;2022-08-19T11:09:48;9.47;;;6.70;;
3046;SDS011;1533;44.816;20.420;2022-08-19T11:12:14;7.80;;;7.00;;
3046;SDS011;1533;44.816;20.420;2022-08-19T11:14:49;8.30;;;7.03;;
3046;SDS011;1533;44.816;20.420;2022-08-19T11:17:27;9.27;;;7.43;;
3046;SDS011;1533;44.816;20.420;2022-08-19T11:19:55;11.90;;;7.40;;
3046;SDS011;1533;44.816;20.420;2022-08-19T11:22:28;7.43;;;6.70;;
3046;SDS011;1533;44.816;20.420;2022-08-19T11:24:57;10.07;;;8.07;;
3046;SDS011;1533;44.816;20.420;2022-08-19T11:27:23;8.67;;;7.03;;
3046;SDS011;1533;44.816;20.420;2022-08-19T11:29:57;13.53;;;7.93;;
3046;SDS011;1533;44.816;20.420;2022-08-19T11:32:23;20.43;;;8.17;;
3046;SDS011;1533;44.816;20.420;2022-08-19T11:34:49;9.70;;;6.80;;
3046;SDS011;1533;44.816;20.420;2022-08-19T11:37:30;11.13;;;5.97;;
3046;SDS011;1533;44.816;20.420;2022-08-19T11:39:57;20.20;;;6.83;;
3046;SDS011;1533;44.816;20.420;2022-08-19T11:42:28;6.53;;;5.93;;
3046;SDS011;1533;44.816;20.420;2022-08-19T11:45:15;22.90;;;6.70;;
3046;SDS011;1533;44.816;20.420;2022-08-19T11:47:59;9.13;;;6.60;;
3046;SDS011;1533;44.816;20.420;2022-08-19T11:50:25;10.50;;;6.47;;
3046;SDS011;1533;44.816;20.420;2022-08-19T11:52:53;11.67;;;6.87;;
3046;SDS011;1533;44.816;20.420;2022-08-19T11:55:25;10.37;;;5.50;;
3046;SDS011;1533;44.816;20.420;2022-08-19T11:58:01;10.07;;;5.80;;
3046;SDS011;1533;44.816;20.420;2022-08-19T12:00:37;13.30;;;6.23;;
3046;SDS011;1533;44.816;20.420;2022-08-19T12:03:20;8.07;;;6.10;;
3046;SDS011;1533;44.816;20.420;2022-08-19T12:05:45;5.70;;;5.17;;
3046;SDS011;1533;44.816;20.420;2022-08-19T12:08:14;6.83;;;5.33;;
3046;SDS011;1533;44.816;20.420;2022-08-19T12:10:46;10.00;;;5.80;;
3046;SDS011;1533;44.816;20.420;2022-08-19T12:13:36;9.17;;;5.77;;
3046;SDS011;1533;44.816;20.420;2022-08-19T12:16:23;7.97;;;6.03;;
3046;SDS011;1533;44.816;20.420;2022-08-19T12:18:53;9.73;;;5.73;;
3046;SDS011;1533;44.816;20.420;2022-08-19T12:21:20;8.93;;;5.27;;
3046;SDS011;1533;44.816;20.420;2022-08-19T12:23:53;9.23;;;5.77;;
3046;SDS011;1533;44.816;20.420;2022-08-19T12:26:22;9.70;;;5.70;;
3046;SDS011;1533;44.816;20.420;2022-08-19T12:28:49;6.67;;;5.37;;
3046;SDS011;1533;44.816;20.420;2022-08-19T12:31:17;13.53;;;5.60;;
3046;SDS011;1533;44.816;20.420;2022-08-19T12:33:50;6.80;;;5.27;;
3046;SDS011;1533;44.816;20.420;2022-08-19T12:36:17;11.97;;;6.07;;
3046;SDS011;1533;44.816;20.420;2022-08-19T12:38:47;11.80;;;5.60;;
3046;SDS011;1533;44.816;20.420;2022-08-19T12:41:16;8.50;;;5.53;;
3046;SDS011;1533;44.816;20.420;2022-08-19T12:43:49;8.40;;;5.70;;
3046;SDS011;1533;44.816;20.420;2022-08-19T12:46:19;8.50;;;4.93;;
3046;SDS011;1533;44.816;20.420;2022-08-19T12:48:59;11.47;;;6.60;;
3046;SDS011;1533;44.816;20.420;2022-08-19T12:51:51;11.30;;;5.60;;
3046;SDS011;1533;44.816;20.420;2022-08-19T12:54:18;10.57;;;5.27;;
3046;SDS011;1533;44.816;20.420;2022-08-19T13:03:17;11.90;;;6.20;;
3046;SDS011;1533;44.816;20.420;2022-08-19T13:05:47;7.83;;;6.13;;
3046;SDS011;1533;44.816;20.420;2022-08-19T13:19:14;14.23;;;6.03;;
3046;SDS011;1533;44.816;20.420;2022-08-19T13:27:14;8.63;;;5.80;;
3046;SDS011;1533;44.816;20.420;2022-08-19T13:35:37;12.10;;;6.00;;
3046;SDS011;1533;44.816;20.420;2022-08-19T13:44:40;12.27;;;6.40;;
3046;SDS011;1533;44.816;20.420;2022-08-19T13:47:08;18.83;;;6.70;;
3046;SDS011;1533;44.816;20.420;2022-08-19T13:49:38;10.27;;;5.33;;
3046;SDS011;1533;44.816;20.420;2022-08-19T13:52:07;9.17;;;5.60;;
3046;SDS011;1533;44.816;20.420;2022-08-19T13:54:36;16.03;;;6.77;;
3046;SDS011;1533;44.816;20.420;2022-08-19T13:57:02;13.30;;;6.30;;
3046;SDS011;1533;44.816;20.420;2022-08-19T13:59:28;11.63;;;5.90;;
3046;SDS011;1533;44.816;20.420;2022-08-19T14:01:57;20.93;;;6.57;;
3046;SDS011;1533;44.816;20.420;2022-08-19T14:04:27;9.70;;;5.70;;
3046;SDS011;1533;44.816;20.420;2022-08-19T14:06:52;9.80;;;6.30;;
3046;SDS011;1533;44.816;20.420;2022-08-19T14:09:18;10.60;;;5.47;;
3046;SDS011;1533;44.816;20.420;2022-08-19T14:11:46;14.47;;;6.63;;
3046;SDS011;1533;44.816;20.420;2022-08-19T14:14:15;19.57;;;6.57;;
3046;SDS011;1533;44.816;20.420;2022-08-19T14:16:41;14.03;;;5.60;;
3046;SDS011;1533;44.816;20.420;2022-08-19T14:19:10;9.27;;;5.83;;
3046;SDS011;1533;44.816;20.420;2022-08-19T14:21:46;19.27;;;6.13;;
3046;SDS011;1533;44.816;20.420;2022-08-19T14:24:14;11.07;;;5.30;;
3046;SDS011;1533;44.816;20.420;2022-08-19T14:26:58;11.33;;;5.90;;
3046;SDS011;1533;44.816;20.420;2022-08-19T14:29:24;16.90;;;5.87;;
3046;SDS011;1533;44.816;20.420;2022-08-19T14:31:50;11.03;;;6.00;;
3046;SDS011;1533;44.816;20.420;2022-08-19T14:34:18;15.40;;;5.17;;
3046;SDS011;1533;44.816;20.420;2022-08-19T14:36:52;9.73;;;5.57;;
3046;SDS011;1533;44.816;20.420;2022-08-19T14:39:41;12.80;;;6.10;;
3046;SDS011;1533;44.816;20.420;2022-08-19T14:42:09;10.80;;;5.37;;
3046;SDS011;1533;44.816;20.420;2022-08-19T14:44:35;11.57;;;5.80;;
3046;SDS011;1533;44.816;20.420;2022-08-19T14:47:03;26.90;;;7.30;;
3046;SDS011;1533;44.816;20.420;2022-08-19T14:49:32;9.60;;;5.23;;
3046;SDS011;1533;44.816;20.420;2022-08-19T14:52:18;13.27;;;6.33;;
3046;SDS011;1533;44.816;20.420;2022-08-19T14:54:43;9.00;;;5.33;;
3046;SDS011;1533;44.816;20.420;2022-08-19T14:57:13;13.00;;;6.07;;
3046;SDS011;1533;44.816;20.420;2022-08-19T14:59:46;9.33;;;5.63;;
3046;SDS011;1533;44.816;20.420;2022-08-19T15:02:13;10.47;;;5.27;;
3046;SDS011;1533;44.816;20.420;2022-08-19T15:04:38;9.30;;;6.13;;
3046;SDS011;1533;44.816;20.420;2022-08-19T15:07:05;10.97;;;5.63;;
3046;SDS011;1533;44.816;20.420;2022-08-19T15:09:38;14.30;;;5.97;;
3046;SDS011;1533;44.816;20.420;2022-08-19T15:12:04;12.00;;;6.07;;
3046;SDS011;1533;44.816;20.420;2022-08-19T15:14:35;10.37;;;5.47;;
3046;SDS011;1533;44.816;20.420;2022-08-19T15:17:02;12.60;;;6.10;;
3046;SDS011;1533;44.816;20.420;2022-08-19T15:19:31;11.40;;;5.63;;
3046;SDS011;1533;44.816;20.420;2022-08-19T15:22:01;9.63;;;6.30;;
3046;SDS011;1533;44.816;20.420;2022-08-19T15:24:30;7.97;;;5.83;;
3046;SDS011;1533;44.816;20.420;2022-08-19T15:27:00;13.90;;;6.80;;
3046;SDS011;1533;44.816;20.420;2022-08-19T15:29:27;18.97;;;7.90;;
3046;SDS011;1533;44.816;20.420;2022-08-19T15:31:53;17.40;;;6.90;;
3046;SDS011;1533;44.816;20.420;2022-08-19T15:34:21;13.40;;;7.13;;
3046;SDS011;1533;44.816;20.420;2022-08-19T15:36:51;13.93;;;6.40;;
3046;SDS011;1533;44.816;20.420;2022-08-19T15:39:19;10.23;;;5.53;;
3046;SDS011;1533;44.816;20.420;2022-08-19T15:41:45;10.50;;;5.87;;
3046;SDS011;1533;44.816;20.420;2022-08-19T15:44:12;12.00;;;5.83;;
3046;SDS011;1533;44.816;20.420;2022-08-19T15:46:40;17.23;;;7.50;;
3046;SDS011;1533;44.816;20.420;2022-08-19T15:49:07;13.90;;;6.70;;
3046;SDS011;1533;44.816;20.420;2022-08-19T15:51:36;18.67;;;7.57;;
3046;SDS011;1533;44.816;20.420;2022-08-19T15:54:06;25.00;;;7.60;;
3046;SDS011;1533;44.816;20.420;2022-08-19T15:56:37;10.60;;;6.10;;
3046;SDS011;1533;44.816;20.420;2022-08-19T15:59:24;13.73;;;6.07;;
3046;SDS011;1533;44.816;20.420;2022-08-19T16:02:09;18.93;;;6.07;;
3046;SDS011;1533;44.816;20.420;2022-08-19T16:04:54;23.13;;;8.80;;
3046;SDS011;1533;44.816;20.420;2022-08-19T16:07:38;11.50;;;6.30;;
3046;SDS011;1533;44.816;20.420;2022-08-19T16:10:04;10.40;;;6.70;;